Airfield :
LOGIN :

Register | Disclaimer

   EN    FR    IT 

 










Legend :    VFR   Marginal VFR   IFR   Intensive IFR   Very Intensive IFR
Visi :
Ceiling :
>= 8 km
>= 3000ft
5 to 8 km
1000 to 3000 ft
1500m to 5 km
500 to 1000 ft
800 to 1500m
200 to 500 ft
< 800m
< 200 ft
Symbols :   Thunderstorms  Fog  Heavy snow  Heavy precipitations  Wind > 20 kt
SIGMETs :     Misc.  Thunderstorms  Icing  Turbulence  Mountain Waves  Volcanic Ashes






- Airport Elevation : 220 ft
- IATA code : CWL


EGFF - Cardiff Rhoose

CURRENT METAR :
  • 152250Z AUTO 22013G23KT 9999 FEW023 SCT049 07/04 Q0995

EXPIRED METARs :
  • 152220Z AUTO 22012KT 9999 NCD 07/04 Q0996
  • 152150Z AUTO 22011KT 180V240 9999 FEW045 07/04 Q0996
  • 152120Z AUTO 22012KT 9999 FEW048/// //////TCU 07/04 Q0996
  • 152050Z AUTO 21011KT 180V240 9999 //////TCU 07/04 Q0996
  • 152020Z AUTO 21011KT 9999 NCD 07/04 Q0995

TAF TAF EGFF
Valid from the 15 at 18:00 until the 16 at 18:00 UTC


151658Z 1518/1618 20014KT 9999 SCT040
TEMPO 1518/1524 24018G28KT 6000 SHRA BKN010
PROB30
TEMPO 1518/1524 4000 +SHRA BKN008 BKN020CB
ATIS : +44 1446 729 319



MET'MAP, your aeronautical weather chart ! - Copyright ORBIFLY December 2007 - Disclaimer

ORBIFLY MET'MAP TEAM :

Programming & Development : Alexandra Zaïnal
Concept & original design : Baudouin d'Aumeries
Assistance for programming : Marc-Olivier Méhu
Technical & hardware support : Manuel Goepfert

Contact : metmap@orbifly.com




SOURCES & CREDITS :

   NOAA